Time;durP1;ratioP1;P1;durP2;ratioP2;P2;SDS_P1;SDS_P2;PMS_P1;PMS_P2;Temp;Humidity;BMP_temperature;BMP_pressure;BME280_temperature;BME280_humidity;BME280_pressure;Samples;Min_cycle;Max_cycle;Signal;HPM_P1;HPM_P2
2021/05/17 00:00:10;;;;;;;;;;;19.50;64.40;;;;;;5072338;28;1194;-67
2021/05/17 00:02:35;;;;;;;;;;;19.50;64.40;;;;;;5054864;28;1067;-67
2021/05/17 00:05:01;;;;;;;;;;;19.50;64.50;;;;;;5054530;28;1119;-67
2021/05/17 00:07:26;;;;;;;;;;;19.50;64.40;;;;;;5072642;28;1099;-67
2021/05/17 00:09:51;;;;;;;;;;;19.50;64.50;;;;;;5091514;22;3837;-73
2021/05/17 00:12:17;;;;;;;;;;;19.50;64.50;;;;;;5081090;28;2054;-73
2021/05/17 00:14:42;;;;;;;;;;;19.50;64.50;;;;;;5093100;28;1946;-73
2021/05/17 00:17:08;;;;;;;;;;;19.50;64.50;;;;;;5091286;28;1491;-73
2021/05/17 00:19:33;;;;;;;;;;;19.50;64.50;;;;;;5083192;28;1384;-73
2021/05/17 00:21:59;;;;;;;;;;;19.50;64.60;;;;;;5072557;28;1292;-73
2021/05/17 00:24:24;;;;;;;;;;;19.50;64.60;;;;;;5067375;28;1100;-73
2021/05/17 00:26:50;;;;;;;;;;;19.50;64.50;;;;;;5067757;28;1041;-73
2021/05/17 00:29:15;;;;;;;;;;;19.50;64.50;;;;;;5072999;28;1333;-73
2021/05/17 00:31:41;;;;;;;;;;;19.50;64.60;;;;;;5064879;28;1520;-73
2021/05/17 00:34:07;;;;;;;;;;;19.50;64.60;;;;;;5061069;28;846;-73
2021/05/17 00:36:32;;;;;;;;;;;19.50;64.60;;;;;;5072002;28;1886;-73
2021/05/17 00:38:58;;;;;;;;;;;19.50;64.60;;;;;;5073076;28;1259;-73
2021/05/17 00:41:24;;;;;;;;;;;19.50;64.60;;;;;;5072216;28;1065;-72
2021/05/17 00:43:49;;;;;;;;;;;19.50;64.60;;;;;;5071681;28;889;-73
2021/05/17 00:46:15;;;;;;;;;;;19.50;64.60;;;;;;5070713;28;1532;-73
2021/05/17 00:48:40;;;;;;;;;;;19.50;64.60;;;;;;5054421;28;1252;-73
2021/05/17 00:51:06;;;;;;;;;;;19.50;64.60;;;;;;5070407;28;1264;-73
2021/05/17 00:53:32;;;;;;;;;;;19.50;64.60;;;;;;5065780;28;1441;-73
2021/05/17 00:55:58;;;;;;;;;;;19.50;64.60;;;;;;5065517;28;1898;-73
2021/05/17 00:58:23;;;;;;;;;;;19.50;64.70;;;;;;5072672;28;1362;-73
2021/05/17 01:00:49;;;;;;;;;;;19.50;64.70;;;;;;5059503;28;1254;-73
2021/05/17 01:03:14;;;;;;;;;;;19.50;64.70;;;;;;5072271;28;1545;-73
2021/05/17 01:05:40;;;;;;;;;;;19.50;64.70;;;;;;5070712;28;1400;-73
2021/05/17 01:08:05;;;;;;;;;;;19.40;64.60;;;;;;5073441;28;1507;-73
2021/05/17 01:10:31;;;;;;;;;;;19.50;64.70;;;;;;5071270;28;1210;-73
2021/05/17 01:12:56;;;;;;;;;;;19.40;64.60;;;;;;5072376;28;1105;-73
2021/05/17 01:15:22;;;;;;;;;;;19.40;64.60;;;;;;5051973;28;1909;-73
2021/05/17 01:17:47;;;;;;;;;;;19.40;64.60;;;;;;5071166;28;1021;-73
2021/05/17 01:20:14;;;;;;;;;;;19.40;65.40;;;;;;5065773;28;1457;-73
2021/05/17 01:22:59;;;;;;;;;;;19.40;64.60;;;;;;5063787;28;1479;-73
2021/05/17 01:25:26;;;;;;;;;;;19.40;64.70;;;;;;5068092;28;1048;-73
2021/05/17 01:27:51;;;;;;;;;;;19.40;65.40;;;;;;5072260;28;1333;-73
2021/05/17 01:30:17;;;;;;;;;;;19.40;64.70;;;;;;5054556;28;1279;-73
2021/05/17 01:32:42;;;;;;;;;;;19.40;64.70;;;;;;5072285;28;1039;-73
2021/05/17 01:35:08;;;;;;;;;;;19.40;65.50;;;;;;5071048;28;1898;-73
2021/05/17 01:37:34;;;;;;;;;;;19.40;64.70;;;;;;5072515;28;811;-73
2021/05/17 01:40:00;;;;;;;;;;;19.40;64.70;;;;;;5070999;28;1352;-73
2021/05/17 01:42:25;;;;;;;;;;;19.40;64.70;;;;;;5071043;28;1478;-73
2021/05/17 01:44:51;;;;;;;;;;;19.40;64.70;;;;;;5071011;28;957;-73
2021/05/17 01:47:16;;;;;;;;;;;19.40;64.70;;;;;;5070306;28;855;-73
2021/05/17 01:49:42;;;;;;;;;;;19.40;64.70;;;;;;5053786;28;1352;-73
2021/05/17 01:52:07;;;;;;;;;;;19.40;64.70;;;;;;5071484;28;1411;-73
2021/05/17 01:54:33;;;;;;;;;;;19.40;64.70;;;;;;5062236;28;1894;-73
2021/05/17 01:56:58;;;;;;;;;;;19.40;64.70;;;;;;5073975;28;1139;-73
2021/05/17 01:59:27;;;;;;;;;;;19.40;64.70;;;;;;5075604;28;1325;-73
2021/05/17 02:01:53;;;;;;;;;;;19.40;64.70;;;;;;5076137;28;763;-73
2021/05/17 02:04:21;;;;;;;;;;;19.40;64.70;;;;;;5074595;28;1381;-73
2021/05/17 02:06:47;;;;;;;;;;;19.40;64.80;;;;;;5056771;28;1579;-73
2021/05/17 02:09:12;;;;;;;;;;;19.40;64.80;;;;;;5075371;28;1390;-73
2021/05/17 02:11:38;;;;;;;;;;;19.40;64.80;;;;;;5075580;28;791;-73
2021/05/17 02:14:03;;;;;;;;;;;19.40;64.80;;;;;;5075241;28;788;-73
2021/05/17 02:16:29;;;;;;;;;;;19.40;64.80;;;;;;5074394;28;1902;-73
2021/05/17 02:18:54;;;;;;;;;;;19.40;64.80;;;;;;5075453;28;1672;-74
2021/05/17 02:21:21;;;;;;;;;;;19.40;64.80;;;;;;5069853;28;1415;-74
2021/05/17 02:23:46;;;;;;;;;;;19.40;64.80;;;;;;5075357;28;830;-74
2021/05/17 02:26:12;;;;;;;;;;;19.40;64.80;;;;;;5074955;28;898;-73
2021/05/17 02:28:38;;;;;;;;;;;19.40;64.80;;;;;;5075125;28;1286;-73
2021/05/17 02:31:04;;;;;;;;;;;19.40;64.80;;;;;;5072311;28;1326;-73
2021/05/17 02:33:29;;;;;;;;;;;19.40;64.80;;;;;;5070019;28;1192;-73
2021/05/17 02:35:55;;;;;;;;;;;19.40;64.90;;;;;;5072921;28;1947;-73
2021/05/17 02:38:20;;;;;;;;;;;19.40;64.80;;;;;;5074519;28;1157;-72
2021/05/17 02:40:46;;;;;;;;;;;19.40;64.80;;;;;;5073260;28;1447;-73
2021/05/17 02:43:12;;;;;;;;;;;19.40;64.90;;;;;;5075065;28;785;-73
2021/05/17 02:45:38;;;;;;;;;;;19.40;64.80;;;;;;5072870;28;1451;-72
2021/05/17 02:48:04;;;;;;;;;;;19.40;64.80;;;;;;5072479;28;1051;-73
2021/05/17 02:50:33;;;;;;;;;;;19.40;64.80;;;;;;5072538;28;1161;-73
2021/05/17 02:52:59;;;;;;;;;;;19.40;64.90;;;;;;5073169;28;1691;-72
2021/05/17 02:55:28;;;;;;;;;;;19.40;64.90;;;;;;5056207;28;1894;-73
2021/05/17 02:57:56;;;;;;;;;;;19.40;64.90;;;;;;5073103;28;1256;-73
2021/05/17 03:00:22;;;;;;;;;;;19.40;64.90;;;;;;5072536;28;1266;-72
2021/05/17 03:02:52;;;;;;;;;;;19.40;64.90;;;;;;5073331;28;1277;-72
2021/05/17 03:05:18;;;;;;;;;;;19.40;64.90;;;;;;5061912;28;1187;-73
2021/05/17 03:07:44;;;;;;;;;;;19.40;64.90;;;;;;5062258;28;1100;-73
2021/05/17 03:10:09;;;;;;;;;;;19.40;64.90;;;;;;5064384;28;1315;-73
2021/05/17 03:12:36;;;;;;;;;;;19.40;64.90;;;;;;5068353;28;1210;-73
2021/05/17 03:15:02;;;;;;;;;;;19.40;64.90;;;;;;5061137;28;1978;-73
2021/05/17 03:17:27;;;;;;;;;;;19.40;64.90;;;;;;5067033;28;1121;-73
2021/05/17 03:19:53;;;;;;;;;;;19.40;65.00;;;;;;5059447;28;1279;-73
2021/05/17 03:22:18;;;;;;;;;;;19.40;65.00;;;;;;5063418;28;1233;-73
2021/05/17 03:24:44;;;;;;;;;;;19.40;65.00;;;;;;5072555;28;1038;-73
2021/05/17 03:27:16;;;;;;;;;;;19.40;64.90;;;;;;5072146;28;1704;-74
2021/05/17 03:29:41;;;;;;;;;;;19.40;64.90;;;;;;5072550;28;1662;-74
2021/05/17 03:32:06;;;;;;;;;;;19.40;64.90;;;;;;5067094;28;1403;-73
2021/05/17 03:34:32;;;;;;;;;;;19.40;64.90;;;;;;5072699;28;1967;-73
2021/05/17 03:37:01;;;;;;;;;;;19.40;64.90;;;;;;5072981;28;1551;-73
2021/05/17 03:39:26;;;;;;;;;;;19.40;64.90;;;;;;5073396;28;1567;-73
2021/05/17 03:41:51;;;;;;;;;;;19.40;64.90;;;;;;5069445;28;1706;-73
2021/05/17 03:44:17;;;;;;;;;;;19.40;64.40;;;;;;5059805;28;1159;-72
2021/05/17 03:46:42;;;;;;;;;;;19.40;64.80;;;;;;5066393;28;1375;-73
2021/05/17 03:49:08;;;;;;;;;;;19.40;64.80;;;;;;5064619;28;1634;-73
2021/05/17 03:51:33;;;;;;;;;;;19.40;64.80;;;;;;5073110;28;1204;-73
2021/05/17 03:53:59;;;;;;;;;;;19.40;64.70;;;;;;5073532;28;1346;-73
2021/05/17 03:56:24;;;;;;;;;;;19.40;64.70;;;;;;5068203;28;1902;-73
2021/05/17 03:58:50;;;;;;;;;;;19.40;64.60;;;;;;5064423;28;1347;-72
2021/05/17 04:01:16;;;;;;;;;;;19.40;64.60;;;;;;5073207;28;1785;-73
2021/05/17 04:03:41;;;;;;;;;;;19.40;64.60;;;;;;5071968;28;1374;-73
2021/05/17 04:06:15;;;;;;;;;;;19.50;64.60;;;;;;5068384;28;1431;-73
2021/05/17 04:13:51;;;;;;;;;;;19.50;64.50;;;;;;5071985;28;1257;-73
2021/05/17 04:16:16;;;;;;;;;;;19.50;64.40;;;;;;5070713;28;1910;-75
2021/05/17 04:18:44;;;;;;;;;;;19.50;64.50;;;;;;5073087;28;1352;-76
2021/05/17 04:21:09;;;;;;;;;;;19.50;64.40;;;;;;5072421;28;858;-75
2021/05/17 04:23:35;;;;;;;;;;;19.50;64.40;;;;;;5073066;28;1387;-76
2021/05/17 04:26:00;;;;;;;;;;;19.50;64.40;;;;;;5072678;28;842;-75
2021/05/17 04:28:26;;;;;;;;;;;19.50;64.40;;;;;;5072991;28;1297;-74
2021/05/17 04:30:52;;;;;;;;;;;19.50;64.40;;;;;;5073332;28;1260;-74
2021/05/17 04:33:17;;;;;;;;;;;19.60;64.40;;;;;;5073130;28;845;-74
2021/05/17 04:35:42;;;;;;;;;;;19.50;64.30;;;;;;5072561;28;1948;-74
2021/05/17 04:38:08;;;;;;;;;;;19.50;64.30;;;;;;5072185;28;954;-75
2021/05/17 04:40:33;;;;;;;;;;;19.50;64.30;;;;;;5055058;28;1357;-74
2021/05/17 04:42:59;;;;;;;;;;;19.50;64.30;;;;;;5073512;28;728;-74
2021/05/17 04:45:24;;;;;;;;;;;19.60;64.40;;;;;;5072623;28;843;-74
2021/05/17 04:47:53;;;;;;;;;;;19.60;64.40;;;;;;5071260;28;1489;-72
2021/05/17 04:50:18;;;;;;;;;;;19.60;64.40;;;;;;5043475;28;1397;-73
2021/05/17 04:52:44;;;;;;;;;;;19.60;64.40;;;;;;5071647;28;1059;-73
2021/05/17 04:55:10;;;;;;;;;;;19.60;64.40;;;;;;5071221;28;1902;-73
2021/05/17 04:57:35;;;;;;;;;;;19.60;64.40;;;;;;5054545;28;1243;-73
2021/05/17 05:00:01;;;;;;;;;;;19.50;64.30;;;;;;5072762;28;1315;-72
2021/05/17 05:02:26;;;;;;;;;;;19.60;64.40;;;;;;5072338;28;1486;-72
2021/05/17 05:04:52;;;;;;;;;;;19.60;64.30;;;;;;5071343;28;1661;-72
2021/05/17 05:07:19;;;;;;;;;;;19.60;64.30;;;;;;5071544;28;1327;-72
2021/05/17 05:09:44;;;;;;;;;;;19.60;64.40;;;;;;5072438;28;1216;-72
2021/05/17 05:12:10;;;;;;;;;;;19.60;64.30;;;;;;5072043;28;1188;-72
2021/05/17 05:14:35;;;;;;;;;;;19.60;64.40;;;;;;5070728;28;1965;-72
2021/05/17 05:17:01;;;;;;;;;;;19.60;64.30;;;;;;5073070;28;1051;-72
2021/05/17 05:19:26;;;;;;;;;;;19.60;64.30;;;;;;5072261;28;1274;-72
2021/05/17 05:21:52;;;;;;;;;;;19.50;64.30;;;;;;5072509;28;1027;-73
2021/05/17 05:24:17;;;;;;;;;;;19.60;64.30;;;;;;5071032;28;839;-72
2021/05/17 05:29:44;;;;;;;;;;;19.60;64.30;;;;;;5037203;28;1250;-72
2021/05/17 05:34:44;;;;;;;;;;;19.60;64.20;;;;;;5076282;28;1902;-72
2021/05/17 05:37:10;;;;;;;;;;;19.60;64.20;;;;;;5074927;28;1430;-72
2021/05/17 05:39:35;;;;;;;;;;;19.60;64.20;;;;;;5075763;28;1242;-73
2021/05/17 05:42:01;;;;;;;;;;;19.60;64.20;;;;;;5074938;28;1209;-73
2021/05/17 05:44:26;;;;;;;;;;;19.60;64.20;;;;;;5074537;28;1321;-72
2021/05/17 05:46:51;;;;;;;;;;;19.60;64.20;;;;;;5075194;28;1523;-74
2021/05/17 05:49:17;;;;;;;;;;;19.60;64.20;;;;;;5075880;28;1519;-74
2021/05/17 05:51:42;;;;;;;;;;;19.60;64.20;;;;;;5075622;28;1486;-74
2021/05/17 05:54:08;;;;;;;;;;;19.60;64.20;;;;;;5075822;28;1223;-74
2021/05/17 05:56:34;;;;;;;;;;;19.60;64.20;;;;;;5075051;28;1942;-74
2021/05/17 05:58:59;;;;;;;;;;;19.60;64.20;;;;;;5075604;28;1348;-71
2021/05/17 06:01:24;;;;;;;;;;;19.60;64.20;;;;;;5075807;28;891;-72
2021/05/17 06:03:50;;;;;;;;;;;19.60;64.20;;;;;;5074494;28;994;-71
2021/05/17 06:06:15;;;;;;;;;;;19.60;64.20;;;;;;5074856;28;898;-71
2021/05/17 06:08:41;;;;;;;;;;;19.60;64.20;;;;;;5075282;28;1311;-72
2021/05/17 06:11:07;;;;;;;;;;;19.60;64.20;;;;;;5092563;22;2069;-66
2021/05/17 06:13:33;;;;;;;;;;;19.60;64.30;;;;;;5107363;28;999;-65
2021/05/17 06:15:59;;;;;;;;;;;19.60;64.30;;;;;;5096624;28;1976;-66
2021/05/17 06:18:24;;;;;;;;;;;19.50;64.30;;;;;;5106580;28;1440;-66
2021/05/17 06:20:50;;;;;;;;;;;19.60;64.30;;;;;;5103872;28;1994;-65
2021/05/17 06:23:16;;;;;;;;;;;19.60;64.30;;;;;;5114003;28;1089;-65
2021/05/17 06:25:42;;;;;;;;;;;19.60;64.30;;;;;;5095261;28;1129;-64
2021/05/17 06:28:08;;;;;;;;;;;19.50;64.20;;;;;;5096438;28;1158;-64
2021/05/17 06:30:42;;;;;;;;;;;19.60;64.30;;;;;;5114524;28;1398;-65
2021/05/17 06:33:07;;;;;;;;;;;19.50;64.30;;;;;;5107691;28;953;-65
2021/05/17 06:35:35;;;;;;;;;;;19.60;64.30;;;;;;5112785;28;1906;-66
2021/05/17 06:38:01;;;;;;;;;;;19.60;64.30;;;;;;5113048;28;1054;-66
2021/05/17 06:40:27;;;;;;;;;;;19.50;64.20;;;;;;5114342;28;1214;-64
2021/05/17 06:42:52;;;;;;;;;;;19.60;64.30;;;;;;5114660;28;1046;-65
2021/05/17 06:45:18;;;;;;;;;;;19.60;64.30;;;;;;5113941;28;1106;-65
2021/05/17 06:47:44;;;;;;;;;;;19.60;64.30;;;;;;5114333;28;1129;-65
2021/05/17 06:50:09;;;;;;;;;;;19.60;64.30;;;;;;5079007;28;1325;-65
2021/05/17 06:52:35;;;;;;;;;;;19.60;64.30;;;;;;5114568;28;1126;-65
2021/05/17 06:55:03;;;;;;;;;;;19.60;64.40;;;;;;5113678;28;1889;-65
2021/05/17 06:58:17;;;;;;;;;;;19.60;64.30;;;;;;5114328;28;1074;-65
2021/05/17 07:00:23;;;;;;;;;;;19.60;64.30;;;;;;5103570;28;1332;-65
2021/05/17 07:02:49;;;;;;;;;;;19.60;64.30;;;;;;5114885;28;1110;-65
2021/05/17 07:05:14;;;;;;;;;;;19.50;64.30;;;;;;5096012;28;1067;-66
2021/05/17 07:12:49;;;;;;;;;;;19.60;64.30;;;;;;5115190;28;1181;-65
2021/05/17 07:15:15;;;;;;;;;;;19.60;64.30;;;;;;5099841;28;1909;-65
2021/05/17 07:17:44;;;;;;;;;;;19.60;64.30;;;;;;5114471;28;1042;-64
2021/05/17 07:20:10;;;;;;;;;;;19.60;64.30;;;;;;5114052;28;1352;-65
2021/05/17 07:25:20;;;;;;;;;;;19.60;64.30;;;;;;5109643;28;1122;-66
2021/05/17 07:27:45;;;;;;;;;;;19.60;64.10;;;;;;5096038;28;1562;-67
2021/05/17 07:30:11;;;;;;;;;;;19.60;64.20;;;;;;5113862;28;1235;-65
2021/05/17 07:32:37;;;;;;;;;;;19.60;64.70;;;;;;5107290;28;1165;-65
2021/05/17 07:35:02;;;;;;;;;;;19.60;64.40;;;;;;5094880;28;1969;-65
2021/05/17 07:37:28;;;;;;;;;;;19.60;64.40;;;;;;5114074;28;1066;-66
2021/05/17 07:39:53;;;;;;;;;;;19.60;64.40;;;;;;5113697;28;1231;-65
2021/05/17 07:42:19;;;;;;;;;;;19.60;64.40;;;;;;5114132;28;1055;-65
2021/05/17 07:44:44;;;;;;;;;;;19.60;64.40;;;;;;5113217;28;1303;-65
2021/05/17 07:47:10;;;;;;;;;;;19.60;64.40;;;;;;5113150;28;1090;-66
2021/05/17 07:49:40;;;;;;;;;;;19.60;64.30;;;;;;5113963;28;1254;-65
2021/05/17 07:52:06;;;;;;;;;;;19.60;64.30;;;;;;5114000;28;1074;-65
2021/05/17 07:54:31;;;;;;;;;;;19.60;64.30;;;;;;5095143;28;1977;-65
2021/05/17 07:56:57;;;;;;;;;;;19.60;64.30;;;;;;5112797;28;1070;-65
2021/05/17 07:59:27;;;;;;;;;;;19.60;64.30;;;;;;5113180;28;1272;-66
2021/05/17 08:01:53;;;;;;;;;;;19.60;64.30;;;;;;5113735;28;1070;-65
2021/05/17 08:04:18;;;;;;;;;;;19.60;64.30;;;;;;5113121;28;1082;-66
2021/05/17 08:06:44;;;;;;;;;;;19.60;64.20;;;;;;5112672;28;1062;-65
2021/05/17 08:09:09;;;;;;;;;;;19.60;64.20;;;;;;5081097;28;1503;-66
2021/05/17 08:11:35;;;;;;;;;;;19.60;64.20;;;;;;5111052;28;1169;-65
2021/05/17 08:14:00;;;;;;;;;;;19.60;64.20;;;;;;5108313;28;1754;-67
2021/05/17 08:16:27;;;;;;;;;;;19.60;64.20;;;;;;5112424;28;1909;-67
2021/05/17 08:18:52;;;;;;;;;;;19.60;64.20;;;;;;5112522;28;1131;-67
2021/05/17 08:21:17;;;;;;;;;;;19.60;64.20;;;;;;5107308;28;2180;-66
2021/05/17 08:23:43;;;;;;;;;;;19.60;64.20;;;;;;5108138;28;1094;-65
2021/05/17 08:26:08;;;;;;;;;;;19.60;64.20;;;;;;5112263;28;1183;-65
2021/05/17 08:28:37;;;;;;;;;;;19.60;64.20;;;;;;5113147;28;1101;-65
2021/05/17 08:31:03;;;;;;;;;;;19.60;64.20;;;;;;5113301;28;1192;-65
2021/05/17 08:33:30;;;;;;;;;;;19.60;64.20;;;;;;5094525;28;1192;-65
2021/05/17 08:35:55;;;;;;;;;;;19.60;64.20;;;;;;5112774;28;1953;-64
2021/05/17 08:38:21;;;;;;;;;;;19.60;64.10;;;;;;5094560;28;1055;-65
2021/05/17 08:40:46;;;;;;;;;;;19.60;64.20;;;;;;5112856;28;1188;-66
2021/05/17 08:43:12;;;;;;;;;;;19.60;64.20;;;;;;5094336;28;1079;-65
2021/05/17 08:45:37;;;;;;;;;;;19.60;64.20;;;;;;5112165;28;1062;-65
2021/05/17 08:48:03;;;;;;;;;;;19.60;64.20;;;;;;5112682;28;1154;-65
2021/05/17 08:50:28;;;;;;;;;;;19.70;64.20;;;;;;5094277;28;1338;-66
2021/05/17 08:52:54;;;;;;;;;;;19.60;64.10;;;;;;5094271;28;1082;-65
2021/05/17 08:55:19;;;;;;;;;;;19.60;64.10;;;;;;5111654;28;1897;-65
2021/05/17 08:57:45;;;;;;;;;;;19.60;64.10;;;;;;5112769;28;1126;-65
2021/05/17 09:00:11;;;;;;;;;;;19.60;64.20;;;;;;5112255;28;1271;-66
2021/05/17 09:02:36;;;;;;;;;;;19.60;64.10;;;;;;5118423;28;1180;-64
2021/05/17 09:05:07;;;;;;;;;;;19.60;64.10;;;;;;5119089;28;1129;-64
2021/05/17 09:07:34;;;;;;;;;;;19.60;64.20;;;;;;5118865;28;1046;-64
2021/05/17 09:09:59;;;;;;;;;;;19.60;64.10;;;;;;5119430;28;1250;-65
2021/05/17 09:12:24;;;;;;;;;;;19.60;64.20;;;;;;5101167;28;1269;-64
2021/05/17 09:14:54;;;;;;;;;;;19.60;64.20;;;;;;5119298;28;1901;-64
2021/05/17 09:17:20;;;;;;;;;;;19.60;64.20;;;;;;5118434;28;1102;-64
2021/05/17 09:19:45;;;;;;;;;;;19.70;64.20;;;;;;5119334;28;1247;-64
2021/05/17 09:22:11;;;;;;;;;;;19.60;64.10;;;;;;5119499;28;1105;-64
2021/05/17 09:24:36;;;;;;;;;;;19.60;64.90;;;;;;5119444;28;1070;-64
2021/05/17 09:27:02;;;;;;;;;;;19.60;64.10;;;;;;5118665;28;1149;-65
2021/05/17 09:29:28;;;;;;;;;;;19.70;64.20;;;;;;5118669;28;1271;-65
2021/05/17 09:31:54;;;;;;;;;;;19.60;64.10;;;;;;5110890;28;1476;-66
2021/05/17 09:34:19;;;;;;;;;;;19.70;64.20;;;;;;5111140;28;1281;-65
2021/05/17 09:36:47;;;;;;;;;;;19.60;64.10;;;;;;5093431;28;1902;-65
2021/05/17 09:39:16;;;;;;;;;;;19.60;64.10;;;;;;5112391;28;1281;-65
2021/05/17 09:41:55;;;;;;;;;;;19.70;64.20;;;;;;5109641;28;1211;-66
2021/05/17 09:44:21;;;;;;;;;;;19.70;64.20;;;;;;5090589;28;1131;-66
2021/05/17 09:47:08;;;;;;;;;;;19.60;64.10;;;;;;5113013;28;1063;-65
2021/05/17 09:49:37;;;;;;;;;;;19.70;64.10;;;;;;5111169;28;1315;-64
2021/05/17 09:52:21;;;;;;;;;;;19.70;64.90;;;;;;5112904;28;1222;-66
2021/05/17 09:54:47;;;;;;;;;;;19.70;64.20;;;;;;5107657;28;1922;-66
2021/05/17 09:57:19;;;;;;;;;;;19.70;64.90;;;;;;5107381;28;1396;-65
2021/05/17 09:59:47;;;;;;;;;;;19.70;64.20;;;;;;5092803;28;1284;-64
2021/05/17 10:02:48;;;;;;;;;;;19.60;64.10;;;;;;5110619;28;1273;-65
2021/05/17 10:05:15;;;;;;;;;;;19.60;64.10;;;;;;5047040;28;1317;-65
2021/05/17 10:07:41;;;;;;;;;;;19.70;64.20;;;;;;5079304;28;1381;-64
2021/05/17 10:10:07;;;;;;;;;;;19.70;64.20;;;;;;5116945;28;1262;-65
2021/05/17 10:12:32;;;;;;;;;;;19.60;64.10;;;;;;5116510;28;1133;-64
2021/05/17 10:14:58;;;;;;;;;;;19.60;64.10;;;;;;5094964;28;1934;-65
2021/05/17 10:17:23;;;;;;;;;;;19.60;64.10;;;;;;5092567;28;1153;-66
2021/05/17 10:19:49;;;;;;;;;;;19.60;64.10;;;;;;5112329;28;1280;-64
2021/05/17 10:22:14;;;;;;;;;;;19.60;64.10;;;;;;5107315;28;1818;-65
2021/05/17 10:24:39;;;;;;;;;;;19.70;64.20;;;;;;5109541;28;1218;-65
2021/05/17 10:27:05;;;;;;;;;;;19.70;64.20;;;;;;5112409;28;1116;-65
2021/05/17 10:29:31;;;;;;;;;;;19.70;64.20;;;;;;5096298;28;1247;-66
2021/05/17 10:31:58;;;;;;;;;;;19.60;64.10;;;;;;5090820;28;2069;-65
2021/05/17 10:34:23;;;;;;;;;;;19.60;64.90;;;;;;5087301;28;1283;-65
2021/05/17 10:36:54;;;;;;;;;;;19.60;64.10;;;;;;5095297;28;1965;-64
2021/05/17 10:39:28;;;;;;;;;;;19.60;64.20;;;;;;5095976;28;1051;-64
2021/05/17 10:42:12;;;;;;;;;;;19.70;64.20;;;;;;5097199;28;1122;-64
2021/05/17 10:47:40;;;;;;;;;;;19.60;63.80;;;;;;5108571;28;1110;-64
2021/05/17 10:50:10;;;;;;;;;;;19.60;65.70;;;;;;5113491;28;1445;-65
2021/05/17 10:52:35;;;;;;;;;;;19.70;65.70;;;;;;5096005;28;1047;-64
2021/05/17 10:55:05;;;;;;;;;;;19.70;62.50;;;;;;5081749;28;1953;-64
2021/05/17 10:57:36;;;;;;;;;;;19.70;59.40;;;;;;5087893;28;1292;-64
2021/05/17 11:02:46;;;;;;;;;;;19.70;59.50;;;;;;5111736;28;1197;-65
2021/05/17 11:05:12;;;;;;;;;;;19.70;58.40;;;;;;5096567;28;1113;-66
2021/05/17 11:07:49;;;;;;;;;;;19.70;58.20;;;;;;5114620;28;1106;-66
2021/05/17 11:10:15;;;;;;;;;;;19.70;58.50;;;;;;5113956;28;1346;-65
2021/05/17 11:12:41;;;;;;;;;;;19.70;58.90;;;;;;5113103;28;1105;-65
2021/05/17 11:15:11;;;;;;;;;;;19.70;58.80;;;;;;5094631;28;1913;-65
2021/05/17 11:17:54;;;;;;;;;;;19.70;57.80;;;;;;5113400;28;1161;-66
2021/05/17 11:20:38;;;;;;;;;;;19.70;57.50;;;;;;5112954;28;1325;-65
2021/05/17 11:23:05;;;;;;;;;;;19.70;57.20;;;;;;5113292;28;1058;-64
2021/05/17 11:25:49;;;;;;;;;;;19.80;58.00;;;;;;5112094;28;1153;-65
2021/05/17 11:28:15;;;;;;;;;;;19.70;58.10;;;;;;5113617;28;1066;-64
2021/05/17 11:30:41;;;;;;;;;;;19.70;58.60;;;;;;5095484;28;1796;-65
2021/05/17 11:33:13;;;;;;;;;;;19.70;58.50;;;;;;5113057;28;1157;-64
2021/05/17 11:36:01;;;;;;;;;;;19.70;58.20;;;;;;5094197;28;1937;-65
2021/05/17 11:38:26;;;;;;;;;;;19.70;58.50;;;;;;5113147;28;1219;-65
2021/05/17 11:40:52;;;;;;;;;;;19.70;58.50;;;;;;5094973;28;1247;-64
2021/05/17 11:43:18;;;;;;;;;;;19.70;58.40;;;;;;5113206;28;1098;-65
2021/05/17 11:45:46;;;;;;;;;;;19.70;58.60;;;;;;5094203;28;1142;-65
2021/05/17 11:48:12;;;;;;;;;;;19.70;58.70;;;;;;5110958;28;1744;-65
2021/05/17 11:50:37;;;;;;;;;;;19.70;58.20;;;;;;5108697;28;2129;-65
2021/05/17 11:53:06;;;;;;;;;;;19.70;57.20;;;;;;5103169;28;1132;-66
2021/05/17 11:55:31;;;;;;;;;;;19.70;56.30;;;;;;5110297;28;1902;-65
2021/05/17 11:57:57;;;;;;;;;;;19.70;56.50;;;;;;5110995;28;1253;-65
2021/05/17 12:00:25;;;;;;;;;;;19.70;56.30;;;;;;5112481;28;1270;-65
2021/05/17 12:02:54;;;;;;;;;;;19.70;56.60;;;;;;5112680;28;1051;-65
2021/05/17 12:05:21;;;;;;;;;;;19.70;56.30;;;;;;5105570;28;1086;-64
2021/05/17 12:07:51;;;;;;;;;;;19.70;56.40;;;;;;5108350;28;1169;-65
2021/05/17 12:12:46;;;;;;;;;;;19.70;56.10;;;;;;5070064;28;1573;-73
2021/05/17 12:15:15;;;;;;;;;;;19.80;55.20;;;;;;5070737;28;1906;-74
2021/05/17 12:17:41;;;;;;;;;;;19.70;54.60;;;;;;5058757;28;1060;-72
2021/05/17 12:20:07;;;;;;;;;;;19.70;54.40;;;;;;5066430;28;1422;-73
2021/05/17 12:22:36;;;;;;;;;;;19.70;52.70;;;;;;5053194;28;1423;-73
2021/05/17 12:25:03;;;;;;;;;;;19.80;53.20;;;;;;5051643;28;1504;-73
2021/05/17 12:27:29;;;;;;;;;;;19.70;54.60;;;;;;5056469;28;1188;-72
2021/05/17 12:29:55;;;;;;;;;;;19.70;54.60;;;;;;5051525;28;1586;-73
2021/05/17 12:32:25;;;;;;;;;;;19.80;54.80;;;;;;5046123;28;1475;-71
2021/05/17 12:34:54;;;;;;;;;;;19.80;53.70;;;;;;5052594;28;1954;-74
2021/05/17 12:37:20;;;;;;;;;;;19.80;54.50;;;;;;5050944;28;885;-72
2021/05/17 12:39:45;;;;;;;;;;;19.80;54.90;;;;;;5052220;28;835;-74
2021/05/17 12:42:14;;;;;;;;;;;19.80;55.10;;;;;;5051581;28;1504;-72
2021/05/17 12:44:41;;;;;;;;;;;19.70;55.40;;;;;;5051776;28;932;-72
2021/05/17 12:47:08;;;;;;;;;;;19.80;55.60;;;;;;5052032;28;1166;-73
2021/05/17 12:49:46;;;;;;;;;;;19.70;56.40;;;;;;5034483;28;1236;-71
2021/05/17 12:52:23;;;;;;;;;;;19.70;57.20;;;;;;5051068;28;1389;-72
2021/05/17 12:55:06;;;;;;;;;;;19.70;57.70;;;;;;5044093;28;1967;-72
2021/05/17 12:57:40;;;;;;;;;;;19.70;58.10;;;;;;5050879;28;1644;-72
2021/05/17 13:00:06;;;;;;;;;;;19.70;58.40;;;;;;5050334;28;1661;-72
2021/05/17 13:02:31;;;;;;;;;;;19.60;58.60;;;;;;5051664;28;1317;-72
2021/05/17 13:04:57;;;;;;;;;;;19.60;58.80;;;;;;5050670;28;1655;-72
2021/05/17 13:07:22;;;;;;;;;;;19.60;59.00;;;;;;5050792;28;1564;-72
2021/05/17 13:09:54;;;;;;;;;;;19.60;59.20;;;;;;5051411;28;1613;-73
2021/05/17 13:12:20;;;;;;;;;;;19.60;59.40;;;;;;5045743;28;1455;-72
2021/05/17 13:14:45;;;;;;;;;;;19.60;59.50;;;;;;5033971;28;1967;-72
2021/05/17 13:17:10;;;;;;;;;;;19.60;59.70;;;;;;5048247;28;2245;-73
2021/05/17 13:33:28;;;;;;;;;;;19.50;60.30;;;;;;5047146;28;1327;-72
2021/05/17 13:36:03;;;;;;;;;;;19.60;60.40;;;;;;5051331;28;1902;-73
2021/05/17 13:38:29;;;;;;;;;;;19.50;60.50;;;;;;5051545;28;1349;-73
2021/05/17 13:40:55;;;;;;;;;;;19.50;60.70;;;;;;5051764;28;1305;-73
2021/05/17 13:43:20;;;;;;;;;;;19.50;60.80;;;;;;5051906;28;1406;-73
2021/05/17 13:45:46;;;;;;;;;;;19.50;60.80;;;;;;5051448;28;1376;-73
2021/05/17 13:48:12;;;;;;;;;;;19.50;60.90;;;;;;5053231;28;1598;-73
2021/05/17 13:50:37;;;;;;;;;;;19.50;61.00;;;;;;5055066;28;1756;-73
2021/05/17 13:53:03;;;;;;;;;;;19.50;61.10;;;;;;5055635;28;1734;-73
2021/05/17 13:55:28;;;;;;;;;;;19.50;61.10;;;;;;5054729;28;1886;-73
2021/05/17 13:57:55;;;;;;;;;;;19.50;61.20;;;;;;5054097;28;1687;-73
2021/05/17 14:00:21;;;;;;;;;;;19.50;61.20;;;;;;5055296;28;1585;-73
2021/05/17 14:02:46;;;;;;;;;;;19.50;61.30;;;;;;5055800;28;1655;-73
2021/05/17 14:05:12;;;;;;;;;;;19.50;61.40;;;;;;5055615;28;1375;-73
2021/05/17 14:07:37;;;;;;;;;;;19.50;61.50;;;;;;5054035;28;1399;-73
2021/05/17 14:10:06;;;;;;;;;;;19.50;61.50;;;;;;5054993;28;1718;-73
2021/05/17 14:12:31;;;;;;;;;;;19.50;61.50;;;;;;5054246;28;1584;-74
2021/05/17 14:14:57;;;;;;;;;;;19.50;61.60;;;;;;5054375;28;1963;-73
2021/05/17 14:17:22;;;;;;;;;;;19.50;61.60;;;;;;5054302;28;1419;-73
2021/05/17 14:19:47;;;;;;;;;;;19.50;61.70;;;;;;5051359;28;1655;-73
2021/05/17 14:22:13;;;;;;;;;;;19.50;61.70;;;;;;5052420;28;1434;-73
2021/05/17 14:24:38;;;;;;;;;;;19.50;61.80;;;;;;5055132;28;1762;-73
2021/05/17 14:27:06;;;;;;;;;;;19.50;61.80;;;;;;5054099;28;1412;-73
2021/05/17 14:29:32;;;;;;;;;;;19.50;61.80;;;;;;5055045;28;1664;-72
2021/05/17 14:31:57;;;;;;;;;;;19.50;61.90;;;;;;5048376;28;1879;-72
2021/05/17 14:34:22;;;;;;;;;;;19.50;61.90;;;;;;5055416;28;1380;-72
2021/05/17 14:36:48;;;;;;;;;;;19.50;61.90;;;;;;5053766;28;1958;-72
2021/05/17 14:39:13;;;;;;;;;;;19.50;62.00;;;;;;5054748;28;1154;-72
2021/05/17 14:41:41;;;;;;;;;;;19.50;62.00;;;;;;5054052;28;1370;-72
2021/05/17 14:44:06;;;;;;;;;;;19.50;62.10;;;;;;5055032;28;1650;-72
2021/05/17 14:46:32;;;;;;;;;;;19.50;62.10;;;;;;5054012;28;1490;-72
2021/05/17 14:48:58;;;;;;;;;;;19.50;62.10;;;;;;5054518;28;1349;-72
2021/05/17 14:51:23;;;;;;;;;;;19.50;62.20;;;;;;5052629;28;1739;-72
2021/05/17 14:53:49;;;;;;;;;;;19.50;62.20;;;;;;5055015;28;1470;-73
2021/05/17 14:56:14;;;;;;;;;;;19.50;62.20;;;;;;5053309;28;1910;-72
2021/05/17 14:58:40;;;;;;;;;;;19.50;62.20;;;;;;5053727;28;1822;-72
2021/05/17 15:01:05;;;;;;;;;;;19.50;62.20;;;;;;5054064;28;1402;-73
2021/05/17 15:03:31;;;;;;;;;;;19.50;62.30;;;;;;5054311;28;1704;-72
2021/05/17 15:05:56;;;;;;;;;;;19.50;62.30;;;;;;5051822;28;1419;-72
2021/05/17 15:08:22;;;;;;;;;;;19.50;62.30;;;;;;5052844;28;1476;-73